createdAt,value
2022-08-17T00:00:55.022Z,24.36
2022-08-17T00:01:59.959Z,24.33
2022-08-17T00:03:17.505Z,24.32
2022-08-17T00:04:20.759Z,24.30
2022-08-17T00:05:23.971Z,24.27
2022-08-17T00:06:29.273Z,24.26
2022-08-17T00:07:32.538Z,24.24
2022-08-17T00:08:41.979Z,24.21
2022-08-17T00:09:45.044Z,24.19
2022-08-17T00:10:49.033Z,24.17
2022-08-17T00:12:40.910Z,24.16
2022-08-17T00:12:56.996Z,24.15
2022-08-17T00:14:06.740Z,24.15
2022-08-17T00:15:10.900Z,24.14
2022-08-17T00:16:56.650Z,24.12
2022-08-17T00:17:31.211Z,24.11
2022-08-17T00:19:07.858Z,24.07
2022-08-17T00:19:39.555Z,24.05
2022-08-17T00:20:43.062Z,24.02
2022-08-17T00:22:29.389Z,24.01
2022-08-17T00:23:04.758Z,23.99
2022-08-17T00:24:08.179Z,23.98
2022-08-17T00:25:14.624Z,23.97
2022-08-17T00:26:43.589Z,23.96
2022-08-17T00:27:24.809Z,23.95
2022-08-17T00:28:27.812Z,23.98
2022-08-17T00:29:32.577Z,23.99
2022-08-17T00:30:50.835Z,23.98
2022-08-17T00:31:41.047Z,23.99
2022-08-17T00:33:22.799Z,24.00
2022-08-17T00:33:51.293Z,24.02
2022-08-17T00:34:54.326Z,24.04
2022-08-17T00:35:58.471Z,24.06
2022-08-17T00:37:01.568Z,24.08
2022-08-17T00:38:06.690Z,24.09
2022-08-17T00:39:09.584Z,24.10
2022-08-17T00:40:14.736Z,24.09
2022-08-17T00:41:21.257Z,24.09
2022-08-17T00:42:27.593Z,24.08
2022-08-17T00:43:47.992Z,24.08
2022-08-17T00:44:51.023Z,24.08
2022-08-17T00:45:54.638Z,24.09
2022-08-17T00:46:57.785Z,24.09
2022-08-17T00:48:00.753Z,24.10
2022-08-17T00:49:05.330Z,24.11
2022-08-17T00:50:12.445Z,24.12
2022-08-17T00:51:21.825Z,24.13
2022-08-17T00:52:28.354Z,24.14
2022-08-17T00:53:33.434Z,24.15
2022-08-17T00:54:41.726Z,24.15
2022-08-17T00:55:44.301Z,24.17
2022-08-17T00:56:50.909Z,24.17
2022-08-17T00:57:57.302Z,24.18
2022-08-17T00:59:02.503Z,24.18
2022-08-17T01:00:09.529Z,24.19
2022-08-17T01:01:21.405Z,24.19
2022-08-17T01:02:19.714Z,24.20
2022-08-17T01:03:26.097Z,24.20
2022-08-17T01:04:31.117Z,24.19
2022-08-17T01:05:38.006Z,24.16
2022-08-17T01:06:44.882Z,24.15
2022-08-17T01:07:50.060Z,24.14
2022-08-17T01:08:57.467Z,24.13
2022-08-17T01:10:03.439Z,24.13
2022-08-17T01:11:08.031Z,24.14
2022-08-17T01:12:11.932Z,24.13
2022-08-17T01:13:15.785Z,24.11
2022-08-17T01:14:20.989Z,24.09
2022-08-17T01:15:24.073Z,24.08
2022-08-17T01:16:31.063Z,24.08
2022-08-17T01:17:34.520Z,24.07
2022-08-17T01:18:37.714Z,24.07
2022-08-17T01:19:42.778Z,24.07
2022-08-17T01:20:51.883Z,24.08
2022-08-17T01:22:13.875Z,24.07
2022-08-17T01:23:20.888Z,24.07
2022-08-17T01:24:24.026Z,24.05
2022-08-17T01:25:29.046Z,24.02
2022-08-17T01:26:35.035Z,24.02
2022-08-17T01:27:38.430Z,24.00
2022-08-17T01:28:53.778Z,24.00
2022-08-17T01:29:50.664Z,23.99
2022-08-17T01:30:58.419Z,23.98
2022-08-17T01:32:03.313Z,23.98
2022-08-17T01:33:08.098Z,23.98
2022-08-17T01:34:12.339Z,23.95
2022-08-17T01:35:15.444Z,23.95
2022-08-17T01:36:20.049Z,23.94
2022-08-17T01:37:29.404Z,23.90
2022-08-17T01:38:33.216Z,23.90
2022-08-17T01:39:39.874Z,23.87
2022-08-17T01:40:46.669Z,23.83
2022-08-17T01:41:53.167Z,23.82
2022-08-17T01:42:59.726Z,23.80
2022-08-17T01:44:05.147Z,23.80
2022-08-17T01:45:16.172Z,23.79
2022-08-17T01:46:29.024Z,23.78
2022-08-17T01:47:32.212Z,23.76
2022-08-17T01:48:38.660Z,23.73
2022-08-17T01:49:41.866Z,23.72
2022-08-17T01:50:47.191Z,23.70
2022-08-17T01:51:50.559Z,23.69
2022-08-17T01:52:56.989Z,23.67
2022-08-17T01:54:06.258Z,23.67
2022-08-17T01:55:10.832Z,23.67
2022-08-17T01:56:17.737Z,23.66
2022-08-17T01:57:20.659Z,23.67
2022-08-17T01:58:23.827Z,23.67
2022-08-17T01:59:26.955Z,23.67
2022-08-17T02:00:46.693Z,23.66
2022-08-17T02:01:37.350Z,23.64
2022-08-17T02:02:40.281Z,23.63
2022-08-17T02:03:56.107Z,23.61
2022-08-17T02:04:48.305Z,23.58
2022-08-17T02:05:52.684Z,23.55
2022-08-17T02:06:55.886Z,23.52
2022-08-17T02:08:00.823Z,23.49
2022-08-17T02:09:05.513Z,23.47
2022-08-17T02:10:16.672Z,23.46
2022-08-17T02:11:18.356Z,23.42
2022-08-17T02:12:39.171Z,23.41
2022-08-17T02:13:31.359Z,23.39
2022-08-17T02:14:34.380Z,23.37
2022-08-17T02:15:37.566Z,23.35
2022-08-17T02:16:41.765Z,23.34
2022-08-17T02:17:45.295Z,23.34
2022-08-17T02:18:48.299Z,23.33
2022-08-17T02:19:51.370Z,23.32
2022-08-17T02:20:54.973Z,23.31
2022-08-17T02:21:57.872Z,23.28
2022-08-17T02:23:02.433Z,23.26
2022-08-17T02:24:10.264Z,23.26
2022-08-17T02:25:16.369Z,23.25
2022-08-17T02:26:25.760Z,23.25
2022-08-17T02:27:26.397Z,23.23
2022-08-17T02:28:29.598Z,23.22
2022-08-17T02:29:32.697Z,23.23
2022-08-17T02:31:00.970Z,23.24
2022-08-17T02:31:42.352Z,23.26
2022-08-17T02:32:45.268Z,23.29
2022-08-17T02:34:00.554Z,23.32
2022-08-17T02:34:54.001Z,23.33
2022-08-17T02:35:57.374Z,23.35
2022-08-17T02:37:00.350Z,23.37
2022-08-17T02:38:05.634Z,23.39
2022-08-17T02:39:10.333Z,23.41
2022-08-17T02:40:14.129Z,23.42
2022-08-17T02:41:18.197Z,23.43
2022-08-17T02:42:27.247Z,23.45
2022-08-17T02:43:30.783Z,23.46
2022-08-17T02:44:35.431Z,23.46
2022-08-17T02:45:39.098Z,23.47
2022-08-17T02:46:42.182Z,23.47
2022-08-17T02:47:45.934Z,23.45
2022-08-17T02:48:48.987Z,23.44
2022-08-17T02:49:55.655Z,23.42
2022-08-17T02:50:57.868Z,23.40
2022-08-17T02:52:04.447Z,23.39
2022-08-17T02:53:07.777Z,23.38
2022-08-17T02:54:39.426Z,23.37
2022-08-17T02:55:19.970Z,23.34
2022-08-17T02:56:24.230Z,23.34
2022-08-17T02:57:27.219Z,23.34
2022-08-17T02:58:34.523Z,23.33
2022-08-17T02:59:35.065Z,23.31
2022-08-17T03:00:45.436Z,23.29
2022-08-17T03:01:48.855Z,23.29
2022-08-17T03:02:52.701Z,23.29
2022-08-17T03:03:56.603Z,23.29
2022-08-17T03:04:59.627Z,23.27
2022-08-17T03:06:03.866Z,23.25
2022-08-17T03:07:07.059Z,23.25
2022-08-17T03:08:11.696Z,23.25
2022-08-17T03:09:16.260Z,23.23
2022-08-17T03:10:19.699Z,23.24
2022-08-17T03:11:23.109Z,23.23
2022-08-17T03:12:30.572Z,23.23
2022-08-17T03:13:33.668Z,23.24
2022-08-17T03:14:41.479Z,23.24
2022-08-17T03:15:45.657Z,23.24
2022-08-17T03:16:48.887Z,23.25
2022-08-17T03:17:53.652Z,23.26
2022-08-17T03:18:56.933Z,23.28
2022-08-17T03:20:00.143Z,23.30
2022-08-17T03:21:03.894Z,23.32
2022-08-17T03:22:36.186Z,23.33
2022-08-17T03:23:12.971Z,23.33
2022-08-17T03:24:16.436Z,23.33
2022-08-17T03:25:27.569Z,23.33
2022-08-17T03:26:31.792Z,23.33
2022-08-17T03:27:35.183Z,23.32
2022-08-17T03:28:38.658Z,23.29
2022-08-17T03:29:41.864Z,23.29
2022-08-17T03:30:45.031Z,23.28
2022-08-17T03:31:49.197Z,23.27
2022-08-17T03:32:54.615Z,23.27
2022-08-17T03:33:57.812Z,23.26
2022-08-17T03:35:02.275Z,23.26
2022-08-17T03:36:06.319Z,23.27
2022-08-17T03:37:09.644Z,23.27
2022-08-17T03:38:15.950Z,23.26
2022-08-17T03:39:19.160Z,23.26
2022-08-17T03:40:34.519Z,23.26
2022-08-17T03:41:27.301Z,23.26
2022-08-17T03:42:32.540Z,23.26
2022-08-17T03:43:35.575Z,23.26
2022-08-17T03:44:38.532Z,23.25
2022-08-17T03:46:00.638Z,23.24
2022-08-17T03:47:22.189Z,23.24
2022-08-17T03:48:43.633Z,23.23
2022-08-17T03:50:06.742Z,23.23
2022-08-17T03:51:15.531Z,23.25
2022-08-17T03:52:36.680Z,23.26
2022-08-17T03:54:12.486Z,23.27
2022-08-17T03:55:36.407Z,23.26
2022-08-17T03:56:42.434Z,23.26
2022-08-17T03:57:45.430Z,23.26
2022-08-17T03:58:49.202Z,23.27
2022-08-17T03:59:53.821Z,23.28
2022-08-17T04:00:56.882Z,23.30
2022-08-17T04:02:08.392Z,23.33
2022-08-17T04:03:12.837Z,23.33
2022-08-17T04:04:16.323Z,23.34
2022-08-17T04:05:21.225Z,23.35
2022-08-17T04:06:24.311Z,23.35
2022-08-17T04:07:29.351Z,23.36
2022-08-17T04:08:32.848Z,23.40
2022-08-17T04:09:36.074Z,23.41
2022-08-17T04:10:44.809Z,23.41
2022-08-17T04:11:44.873Z,23.42
2022-08-17T04:12:52.545Z,23.44
2022-08-17T04:13:56.199Z,23.46
2022-08-17T04:14:59.266Z,23.47
2022-08-17T04:16:02.247Z,23.48
2022-08-17T04:17:07.238Z,23.47
2022-08-17T04:18:11.070Z,23.47
2022-08-17T04:19:14.304Z,23.47
2022-08-17T04:20:20.228Z,23.46
2022-08-17T04:21:23.840Z,23.45
2022-08-17T04:22:33.235Z,23.47
2022-08-17T04:23:34.543Z,23.48
2022-08-17T04:24:37.647Z,23.48
2022-08-17T04:25:44.004Z,23.48
2022-08-17T04:26:53.175Z,23.49
2022-08-17T04:27:54.433Z,23.49
2022-08-17T04:28:59.835Z,23.50
2022-08-17T04:30:06.328Z,23.50
2022-08-17T04:31:11.195Z,23.52
2022-08-17T04:32:14.080Z,23.55
2022-08-17T04:33:20.848Z,23.55
2022-08-17T04:34:24.547Z,23.57
2022-08-17T04:35:31.332Z,23.56
2022-08-17T04:36:35.972Z,23.56
2022-08-17T04:37:38.831Z,23.58
2022-08-17T04:38:43.917Z,23.58
2022-08-17T04:39:48.873Z,23.58
2022-08-17T04:41:11.890Z,23.60
2022-08-17T04:42:16.721Z,23.60
2022-08-17T04:43:22.550Z,23.62
2022-08-17T04:44:36.958Z,23.63
2022-08-17T04:45:31.969Z,23.66
2022-08-17T04:46:35.850Z,23.68
2022-08-17T04:47:39.693Z,23.68
2022-08-17T04:48:48.478Z,23.68
2022-08-17T04:49:53.094Z,23.68
2022-08-17T04:50:57.889Z,23.70
2022-08-17T04:52:04.303Z,23.71
2022-08-17T04:53:05.996Z,23.73
2022-08-17T04:54:12.386Z,23.74
2022-08-17T04:55:15.451Z,23.75
2022-08-17T04:56:19.063Z,23.76
2022-08-17T04:57:22.227Z,23.77
2022-08-17T04:58:25.611Z,23.79
2022-08-17T04:59:28.636Z,23.80
2022-08-17T05:00:33.127Z,23.83
2022-08-17T05:01:38.639Z,23.85
2022-08-17T05:02:50.290Z,23.89
2022-08-17T05:03:55.881Z,23.90
2022-08-17T05:04:59.026Z,23.93
2022-08-17T05:06:03.837Z,23.98
2022-08-17T05:07:07.229Z,24.00
2022-08-17T05:08:10.401Z,24.03
2022-08-17T05:09:13.670Z,24.04
2022-08-17T05:10:17.229Z,24.07
2022-08-17T05:11:20.728Z,24.09
2022-08-17T05:12:23.802Z,24.11
2022-08-17T05:13:31.696Z,24.14
2022-08-17T05:14:34.809Z,24.16
2022-08-17T05:15:45.182Z,24.19
2022-08-17T05:16:46.992Z,24.21
2022-08-17T05:17:49.897Z,24.23
2022-08-17T05:18:53.803Z,24.26
2022-08-17T05:19:56.716Z,24.27
2022-08-17T05:20:59.933Z,24.30
2022-08-17T05:22:05.154Z,24.33
2022-08-17T05:23:11.751Z,24.36
2022-08-17T05:24:42.467Z,24.39
2022-08-17T05:25:25.611Z,24.41
2022-08-17T05:26:29.575Z,24.44
2022-08-17T05:27:35.279Z,24.45
2022-08-17T05:28:37.682Z,24.48
2022-08-17T05:29:41.060Z,24.53
2022-08-17T05:30:45.280Z,24.54
2022-08-17T05:31:50.253Z,24.58
2022-08-17T05:32:58.983Z,24.61
2022-08-17T05:34:02.915Z,24.64
2022-08-17T05:35:06.559Z,24.67
2022-08-17T05:36:42.331Z,24.70
2022-08-17T05:37:18.295Z,24.72
2022-08-17T05:38:22.960Z,24.75
2022-08-17T05:39:26.019Z,24.77
2022-08-17T05:40:32.694Z,24.80
2022-08-17T05:41:35.104Z,24.83
2022-08-17T05:42:38.184Z,24.85
2022-08-17T05:43:42.197Z,24.88
2022-08-17T05:44:45.469Z,24.90
2022-08-17T05:46:07.023Z,24.93
2022-08-17T05:47:10.144Z,24.95
2022-08-17T05:48:14.857Z,24.99
2022-08-17T05:49:21.536Z,25.00
2022-08-17T05:50:31.328Z,25.03
2022-08-17T05:52:00.775Z,25.05
2022-08-17T05:53:07.369Z,25.08
2022-08-17T05:54:45.370Z,25.10
2022-08-17T05:56:22.365Z,25.12
2022-08-17T05:57:36.510Z,25.13
2022-08-17T05:58:50.195Z,25.17
2022-08-17T06:00:02.611Z,25.18
2022-08-17T06:01:13.900Z,25.20
2022-08-17T06:02:49.352Z,25.21
2022-08-17T06:04:02.022Z,25.25
2022-08-17T06:05:25.316Z,25.27
2022-08-17T06:06:44.396Z,25.29
2022-08-17T06:08:07.980Z,25.31
2022-08-17T06:10:29.185Z,25.45
2022-08-17T06:11:36.168Z,25.37
2022-08-17T06:13:00.591Z,25.39
2022-08-17T06:14:19.279Z,25.40
2022-08-17T06:15:31.961Z,25.43
2022-08-17T06:16:38.532Z,25.45
2022-08-17T06:17:42.932Z,25.46
2022-08-17T06:18:49.575Z,25.48
2022-08-17T06:19:56.403Z,25.52
2022-08-17T06:21:03.187Z,25.54
2022-08-17T06:22:09.397Z,25.57
2022-08-17T06:23:17.743Z,25.59
2022-08-17T06:24:30.953Z,25.62
2022-08-17T06:25:37.533Z,25.64
2022-08-17T06:26:43.685Z,25.66
2022-08-17T06:27:53.874Z,25.70
2022-08-17T06:29:00.656Z,25.72
2022-08-17T06:30:24.320Z,25.75
2022-08-17T06:31:30.429Z,25.78
2022-08-17T06:32:38.809Z,25.80
2022-08-17T06:33:43.703Z,25.83
2022-08-17T06:34:46.800Z,25.85
2022-08-17T06:36:02.801Z,25.88
2022-08-17T06:37:18.252Z,25.89
2022-08-17T06:38:43.161Z,25.91
2022-08-17T06:40:02.139Z,25.94
2022-08-17T06:41:09.673Z,25.95
2022-08-17T06:42:59.985Z,25.98
2022-08-17T06:43:34.162Z,25.98
2022-08-17T06:45:05.078Z,26.00
2022-08-17T06:46:12.425Z,26.02
2022-08-17T06:47:28.717Z,26.05
2022-08-17T06:48:51.735Z,26.08
2022-08-17T06:50:11.248Z,26.08
2022-08-17T06:51:18.048Z,26.09
2022-08-17T06:52:46.841Z,26.11
2022-08-17T06:53:41.956Z,26.15
2022-08-17T06:55:18.179Z,26.15
2022-08-17T06:56:53.694Z,26.18
2022-08-17T06:57:40.535Z,26.20
2022-08-17T06:58:44.347Z,26.24
2022-08-17T06:59:55.515Z,26.24
2022-08-17T07:00:58.963Z,26.27
2022-08-17T07:02:05.911Z,26.30
2022-08-17T07:03:24.573Z,26.30
2022-08-17T07:04:30.758Z,26.31
2022-08-17T07:05:44.489Z,26.33
2022-08-17T07:06:53.937Z,26.36
2022-08-17T07:08:12.674Z,26.37
2022-08-17T07:09:22.813Z,26.39
2022-08-17T07:10:28.813Z,26.43
2022-08-17T07:11:41.529Z,26.44
2022-08-17T07:12:45.578Z,26.48
2022-08-17T07:13:58.410Z,26.50
2022-08-17T07:15:14.378Z,26.54
2022-08-17T07:16:27.895Z,26.58
2022-08-17T07:17:47.440Z,26.60
2022-08-17T07:18:38.747Z,26.63
2022-08-17T07:19:45.009Z,26.65
2022-08-17T07:20:51.640Z,26.67
2022-08-17T07:22:07.146Z,26.69
2022-08-17T07:23:16.779Z,26.70
2022-08-17T07:24:36.772Z,26.73
2022-08-17T07:25:39.950Z,26.76
2022-08-17T07:26:43.029Z,26.78
2022-08-17T07:27:52.218Z,26.80
2022-08-17T07:28:55.733Z,26.83
2022-08-17T07:30:17.279Z,26.84
2022-08-17T07:31:20.544Z,26.89
2022-08-17T07:32:33.664Z,26.89
2022-08-17T07:33:37.654Z,26.90
2022-08-17T07:35:12.878Z,26.91
2022-08-17T07:36:29.792Z,26.91
2022-08-17T07:37:33.079Z,26.93
2022-08-17T07:38:39.676Z,26.94
2022-08-17T07:39:59.714Z,26.95
2022-08-17T07:41:04.536Z,26.95
2022-08-17T07:42:09.821Z,26.96
2022-08-17T07:43:22.201Z,26.98
2022-08-17T07:44:20.777Z,27.00
2022-08-17T07:45:42.152Z,27.02
2022-08-17T07:47:09.602Z,27.03
2022-08-17T07:48:19.271Z,27.04
2022-08-17T07:49:34.783Z,27.06
2022-08-17T07:50:38.476Z,27.07
2022-08-17T07:51:49.355Z,27.08
2022-08-17T07:52:52.602Z,27.09
2022-08-17T07:54:13.556Z,27.11
2022-08-17T07:55:11.738Z,27.13
2022-08-17T07:56:37.360Z,27.14
2022-08-17T07:57:40.359Z,27.15
2022-08-17T07:58:43.354Z,27.17
2022-08-17T08:00:12.810Z,27.17
2022-08-17T08:01:17.869Z,27.18
2022-08-17T08:02:38.157Z,27.19
2022-08-17T08:03:43.091Z,27.22
2022-08-17T08:05:01.147Z,27.23
2022-08-17T08:06:00.601Z,27.24
2022-08-17T08:07:07.213Z,27.25
2022-08-17T08:08:43.083Z,27.25
2022-08-17T08:10:01.538Z,27.27
2022-08-17T08:11:18.113Z,27.28
2022-08-17T08:12:33.613Z,27.28
2022-08-17T08:13:42.047Z,27.30
2022-08-17T08:14:57.935Z,27.30
2022-08-17T08:17:29.327Z,27.43
2022-08-17T08:18:53.845Z,27.30
2022-08-17T08:19:40.132Z,27.30
2022-08-17T08:20:52.413Z,27.31
2022-08-17T08:22:19.715Z,27.32
2022-08-17T08:23:38.961Z,27.33
2022-08-17T08:24:48.578Z,27.33
2022-08-17T08:26:00.887Z,27.34
2022-08-17T08:27:38.540Z,27.35
2022-08-17T08:29:06.254Z,27.37
2022-08-17T08:30:19.095Z,27.38
2022-08-17T08:31:28.796Z,27.38
2022-08-17T08:32:58.544Z,27.39
2022-08-17T08:34:47.392Z,27.42
2022-08-17T08:35:30.994Z,27.44
2022-08-17T08:37:12.583Z,27.46
2022-08-17T08:38:05.427Z,27.48
2022-08-17T08:39:17.594Z,27.51
2022-08-17T08:40:38.200Z,27.54
2022-08-17T08:41:57.893Z,27.57
2022-08-17T08:43:04.710Z,27.59
2022-08-17T08:45:00.350Z,27.61
2022-08-17T08:45:56.050Z,27.64
2022-08-17T08:47:18.684Z,27.66
2022-08-17T08:48:56.083Z,27.69
2022-08-17T08:50:05.969Z,27.71
2022-08-17T08:51:26.445Z,27.74
2022-08-17T08:52:42.140Z,27.76
2022-08-17T08:53:51.503Z,27.79
2022-08-17T08:55:12.869Z,27.82
2022-08-17T08:56:39.056Z,27.84
2022-08-17T08:59:32.855Z,27.98
2022-08-17T09:00:40.015Z,27.88
2022-08-17T09:01:49.675Z,27.90
2022-08-17T09:03:11.491Z,27.91
2022-08-17T09:04:25.263Z,27.93
2022-08-17T09:05:55.423Z,27.93
2022-08-17T09:07:20.446Z,27.96
2022-08-17T09:08:39.079Z,27.99
2022-08-17T09:10:04.481Z,28.00
2022-08-17T09:11:21.870Z,28.02
2022-08-17T09:12:29.238Z,28.04
2022-08-17T09:14:02.503Z,28.06
2022-08-17T09:15:33.043Z,28.08
2022-08-17T09:18:59.923Z,28.23
2022-08-17T09:19:37.950Z,28.13
2022-08-17T09:20:53.383Z,28.16
2022-08-17T09:22:00.077Z,28.17
2022-08-17T09:23:07.466Z,28.19
2022-08-17T09:24:25.990Z,28.22
2022-08-17T09:25:32.703Z,28.25
2022-08-17T09:28:35.675Z,28.30
2022-08-17T09:29:44.956Z,28.32
2022-08-17T09:30:51.496Z,28.34
2022-08-17T09:31:57.693Z,28.36
2022-08-17T09:33:04.340Z,28.37
2022-08-17T09:34:16.246Z,28.38
2022-08-17T09:35:24.523Z,28.39
2022-08-17T09:36:37.878Z,28.39
2022-08-17T09:38:04.316Z,28.39
2022-08-17T09:39:16.738Z,28.40
2022-08-17T09:40:35.464Z,28.41
2022-08-17T09:41:49.330Z,28.42
2022-08-17T09:42:56.456Z,28.44
2022-08-17T09:44:28.589Z,28.46
2022-08-17T09:45:48.902Z,28.48
2022-08-17T09:47:10.661Z,28.50
2022-08-17T09:48:19.948Z,28.52
2022-08-17T09:49:32.528Z,28.53
2022-08-17T09:51:05.378Z,28.55
2022-08-17T09:52:12.984Z,28.56
2022-08-17T09:53:16.150Z,28.59
2022-08-17T09:54:40.846Z,28.60
2022-08-17T09:56:04.452Z,28.62
2022-08-17T09:57:29.739Z,28.63
2022-08-17T09:58:29.120Z,28.65
2022-08-17T09:59:56.379Z,28.66
2022-08-17T10:02:43.476Z,28.78
2022-08-17T10:03:59.235Z,28.67
2022-08-17T10:05:14.787Z,28.67
2022-08-17T10:06:33.597Z,28.66
2022-08-17T10:07:42.840Z,28.66
2022-08-17T10:09:00.539Z,28.68
2022-08-17T10:10:14.373Z,28.69
2022-08-17T10:11:50.401Z,28.72
2022-08-17T10:12:57.220Z,28.73
2022-08-17T10:14:36.513Z,28.76
2022-08-17T10:15:27.408Z,28.76
2022-08-17T10:16:49.201Z,28.77
2022-08-17T10:18:06.470Z,28.80
2022-08-17T10:19:36.941Z,28.82
2022-08-17T10:20:50.465Z,28.85
2022-08-17T10:22:35.161Z,28.87
2022-08-17T10:23:44.661Z,28.88
2022-08-17T10:25:22.899Z,28.92
2022-08-17T10:26:21.964Z,28.93
2022-08-17T10:27:34.576Z,28.95
2022-08-17T10:29:02.385Z,28.96
2022-08-17T10:30:07.580Z,28.98
2022-08-17T10:31:34.469Z,29.00
2022-08-17T10:32:41.003Z,29.03
2022-08-17T10:34:11.807Z,29.04
2022-08-17T10:35:33.520Z,29.08
2022-08-17T10:36:53.818Z,29.09
2022-08-17T10:38:03.295Z,29.11
2022-08-17T10:39:09.841Z,29.11
2022-08-17T10:40:32.563Z,29.12
2022-08-17T10:41:42.398Z,29.14
2022-08-17T10:42:51.723Z,29.16
2022-08-17T10:44:38.520Z,29.18
2022-08-17T10:45:30.097Z,29.20
2022-08-17T10:46:53.471Z,29.22
2022-08-17T10:48:05.761Z,29.23
2022-08-17T10:49:23.260Z,29.23
2022-08-17T10:50:57.883Z,29.25
2022-08-17T10:52:22.302Z,29.24
2022-08-17T10:53:41.537Z,29.25
2022-08-17T10:54:58.751Z,29.26
2022-08-17T10:56:16.963Z,29.26
2022-08-17T10:57:32.616Z,29.28
2022-08-17T10:58:54.138Z,29.30
2022-08-17T10:59:58.725Z,29.31
2022-08-17T11:01:03.284Z,29.31
2022-08-17T11:02:17.474Z,29.32
2022-08-17T11:03:24.115Z,29.32
2022-08-17T11:04:47.402Z,29.32
2022-08-17T11:06:01.386Z,29.32
2022-08-17T11:07:27.741Z,29.33
2022-08-17T11:08:50.769Z,29.34
2022-08-17T11:10:06.610Z,29.35
2022-08-17T11:11:33.579Z,29.37
2022-08-17T11:12:49.485Z,29.38
2022-08-17T11:14:09.457Z,29.40
2022-08-17T11:15:34.232Z,29.44
2022-08-17T11:17:15.262Z,29.44
2022-08-17T11:18:27.714Z,29.45
2022-08-17T11:19:42.900Z,29.47
2022-08-17T11:21:09.092Z,29.47
2022-08-17T11:22:33.327Z,29.48
2022-08-17T11:23:40.157Z,29.49
2022-08-17T11:24:47.339Z,29.50
2022-08-17T11:25:54.030Z,29.51
2022-08-17T11:27:23.489Z,29.51
2022-08-17T11:28:34.304Z,29.53
2022-08-17T11:30:01.235Z,29.55
2022-08-17T11:31:10.803Z,29.58
2022-08-17T11:32:47.477Z,29.59
2022-08-17T11:33:56.278Z,29.62
2022-08-17T11:35:24.791Z,29.64
2022-08-17T11:37:10.553Z,29.66
2022-08-17T11:38:20.084Z,29.68
2022-08-17T11:39:26.814Z,29.68
2022-08-17T11:41:05.339Z,29.70
2022-08-17T11:42:35.682Z,29.72
2022-08-17T11:45:32.420Z,29.87
2022-08-17T11:46:35.614Z,29.77
2022-08-17T11:48:28.823Z,29.79
2022-08-17T11:49:42.277Z,29.78
2022-08-17T11:51:08.663Z,29.78
2022-08-17T11:52:36.154Z,29.78
2022-08-17T11:53:42.837Z,29.78
2022-08-17T11:54:48.052Z,29.80
2022-08-17T11:56:00.728Z,29.81
2022-08-17T11:57:27.191Z,29.82
2022-08-17T11:58:35.692Z,29.84
2022-08-17T11:59:43.234Z,29.87
2022-08-17T12:00:51.294Z,29.88
2022-08-17T12:01:56.657Z,29.89
2022-08-17T12:03:22.943Z,29.90
2022-08-17T12:04:31.776Z,29.91
2022-08-17T12:05:36.270Z,29.94
2022-08-17T12:06:56.411Z,29.95
2022-08-17T12:08:14.686Z,29.97
2022-08-17T12:09:21.483Z,29.99
2022-08-17T12:10:31.907Z,29.99
2022-08-17T12:12:10.927Z,30.00
2022-08-17T12:12:54.565Z,30.01
2022-08-17T12:14:00.266Z,30.02
2022-08-17T12:15:10.546Z,30.02
2022-08-17T12:16:17.200Z,30.04
2022-08-17T12:17:41.442Z,30.05
2022-08-17T12:18:37.799Z,30.05
2022-08-17T12:19:42.701Z,30.07
2022-08-17T12:20:53.217Z,30.09
2022-08-17T12:22:23.005Z,30.09
2022-08-17T12:23:39.363Z,30.10
2022-08-17T12:25:01.329Z,30.11
2022-08-17T12:26:14.707Z,30.12
2022-08-17T12:28:04.399Z,30.11
2022-08-17T12:28:35.544Z,30.12
2022-08-17T12:29:42.104Z,30.13
2022-08-17T12:30:50.426Z,30.13
2022-08-17T12:31:56.201Z,30.15
2022-08-17T12:33:00.443Z,30.15
2022-08-17T12:34:04.534Z,30.16
2022-08-17T12:35:23.331Z,30.17
2022-08-17T12:36:28.737Z,30.17
2022-08-17T12:37:34.805Z,30.16
2022-08-17T12:38:38.189Z,30.17
2022-08-17T12:39:53.983Z,30.18
2022-08-17T12:40:58.564Z,30.20
2022-08-17T12:42:02.801Z,30.21
2022-08-17T12:43:20.813Z,30.22
2022-08-17T12:44:36.011Z,30.23
2022-08-17T12:45:41.292Z,30.24
2022-08-17T12:46:53.314Z,30.25
2022-08-17T12:48:09.109Z,30.26
2022-08-17T12:49:29.007Z,30.28
2022-08-17T12:50:36.560Z,30.28
2022-08-17T12:51:44.852Z,30.28
2022-08-17T12:52:48.444Z,30.29
2022-08-17T12:53:55.081Z,30.29
2022-08-17T12:55:07.892Z,30.30
2022-08-17T12:56:13.003Z,30.31
2022-08-17T12:57:25.465Z,30.32
2022-08-17T12:58:32.099Z,30.32
2022-08-17T12:59:38.840Z,30.32
2022-08-17T13:01:08.298Z,30.32
2022-08-17T13:02:30.468Z,30.32
2022-08-17T13:03:39.669Z,30.34
2022-08-17T13:04:43.030Z,30.34
2022-08-17T13:06:05.757Z,30.34
2022-08-17T13:07:08.886Z,30.36
2022-08-17T13:08:22.725Z,30.36
2022-08-17T13:09:35.664Z,30.36
2022-08-17T13:10:35.559Z,30.35
2022-08-17T13:11:48.161Z,30.35
2022-08-17T13:12:52.008Z,30.35
2022-08-17T13:13:56.413Z,30.35
2022-08-17T13:14:59.838Z,30.35
2022-08-17T13:16:08.588Z,30.35
2022-08-17T13:17:13.730Z,30.33
2022-08-17T13:18:45.785Z,30.34
2022-08-17T13:19:50.893Z,30.36
2022-08-17T13:20:57.681Z,30.38
2022-08-17T13:22:01.569Z,30.38
2022-08-17T13:23:12.374Z,30.41
2022-08-17T13:24:19.971Z,30.43
2022-08-17T13:25:23.924Z,30.44
2022-08-17T13:26:33.385Z,30.46
2022-08-17T13:27:37.694Z,30.49
2022-08-17T13:28:51.217Z,30.51
2022-08-17T13:29:58.995Z,30.55
2022-08-17T13:32:43.032Z,30.79
2022-08-17T13:33:45.139Z,30.72
2022-08-17T13:35:15.207Z,30.78
2022-08-17T13:36:07.795Z,30.83
2022-08-17T13:37:32.195Z,30.90
2022-08-17T13:38:48.186Z,30.96
2022-08-17T13:39:56.124Z,31.03
2022-08-17T13:40:59.365Z,31.11
2022-08-17T13:42:05.890Z,31.15
2022-08-17T13:43:10.337Z,31.21
2022-08-17T13:44:33.169Z,31.27
2022-08-17T13:45:39.734Z,31.35
2022-08-17T13:46:47.245Z,31.43
2022-08-17T13:48:18.737Z,31.49
2022-08-17T13:49:22.152Z,31.56
2022-08-17T13:50:25.560Z,31.63
2022-08-17T13:51:31.031Z,31.68
2022-08-17T13:52:40.401Z,31.73
2022-08-17T13:53:49.328Z,31.79
2022-08-17T13:54:52.340Z,31.85
2022-08-17T13:56:38.373Z,31.91
2022-08-17T13:57:37.320Z,31.96
2022-08-17T13:58:43.473Z,32.04
2022-08-17T13:59:54.124Z,32.09
2022-08-17T14:00:55.767Z,32.16
2022-08-17T14:01:59.332Z,32.22
2022-08-17T14:03:05.007Z,32.27
2022-08-17T14:04:14.572Z,32.35
2022-08-17T14:05:17.693Z,32.41
2022-08-17T14:06:49.247Z,32.47
2022-08-17T14:07:30.161Z,32.51
2022-08-17T14:08:33.183Z,32.56
2022-08-17T14:09:51.671Z,32.59
2022-08-17T14:10:58.123Z,32.61
2022-08-17T14:12:02.651Z,32.64
2022-08-17T14:13:06.859Z,32.64
2022-08-17T14:14:10.730Z,32.64
2022-08-17T14:15:18.772Z,32.64
2022-08-17T14:16:23.340Z,32.64
2022-08-17T14:17:28.439Z,32.62
2022-08-17T14:18:55.850Z,32.60
2022-08-17T14:19:37.349Z,32.58
2022-08-17T14:20:40.819Z,32.55
2022-08-17T14:21:46.149Z,32.53
2022-08-17T14:22:51.763Z,32.50
2022-08-17T14:23:55.148Z,32.46
2022-08-17T14:25:01.065Z,32.42
2022-08-17T14:26:04.791Z,32.38
2022-08-17T14:27:11.410Z,32.33
2022-08-17T14:28:14.308Z,32.31
2022-08-17T14:29:17.518Z,32.26
2022-08-17T14:30:23.481Z,32.24
2022-08-17T14:31:27.122Z,32.23
2022-08-17T14:32:32.667Z,32.21
2022-08-17T14:33:36.352Z,32.22
2022-08-17T14:34:39.289Z,32.21
2022-08-17T14:35:42.331Z,32.20
2022-08-17T14:36:48.393Z,32.18
2022-08-17T14:37:52.517Z,32.17
2022-08-17T14:38:55.915Z,32.15
2022-08-17T14:40:01.522Z,32.12
2022-08-17T14:41:05.062Z,32.09
2022-08-17T14:42:10.188Z,32.07
2022-08-17T14:43:15.075Z,32.05
2022-08-17T14:44:18.378Z,32.02
2022-08-17T14:45:30.250Z,31.99
2022-08-17T14:46:27.248Z,31.97
2022-08-17T14:47:30.315Z,31.95
2022-08-17T14:48:35.161Z,31.93
2022-08-17T14:49:38.281Z,31.91
2022-08-17T14:50:42.656Z,31.87
2022-08-17T14:51:45.626Z,31.86
2022-08-17T14:52:48.616Z,31.84
2022-08-17T14:53:51.615Z,31.81
2022-08-17T14:54:54.868Z,31.80
2022-08-17T14:55:57.879Z,31.78
2022-08-17T14:57:23.010Z,31.75
2022-08-17T14:58:08.194Z,31.73
2022-08-17T14:59:11.350Z,31.71
2022-08-17T15:00:16.038Z,31.69
2022-08-17T15:01:20.536Z,31.66
2022-08-17T15:02:29.719Z,31.63
2022-08-17T15:03:33.111Z,31.61
2022-08-17T15:04:39.782Z,31.59
2022-08-17T15:05:43.675Z,31.56
2022-08-17T15:06:49.430Z,31.52
2022-08-17T15:07:54.364Z,31.49
2022-08-17T15:08:57.378Z,31.45
2022-08-17T15:10:01.926Z,31.42
2022-08-17T15:11:05.671Z,31.39
2022-08-17T15:12:08.975Z,31.35